Flight Track Log - Related Links

Times and Time Zones

All times are in EDT time to prevent confusion due to time zone crossing. See the CTL9 flight status page for this flight to view local times or setup timezone preferences in your user account.

Time Position Orientation Groundspeed Altitude Reporting Facility
EDT Latitude Longitude Course Direction KTS MPH feet Rate Location/Type
Fri 07:44:57 PM 29.6161 -95.6783 321° Northwest 125 144 900  Level Houston Center
Fri 07:45:34 PM 29.6344 -95.6953 290° West 153 176 1,300 474 Climbing Houston Center
Fri 07:46:13 PM 29.6508 -95.7097 323° Northwest 143 165 1,500 535 Climbing Houston Center
Fri 07:47:15 PM 29.7011 -95.7278 343° North 155 178 2,200 683 Climbing Houston Center
Fri 07:48:16 PM 29.7411 -95.7408 344° North 152 175 2,900 683 Climbing Houston Center
Fri 07:49:18 PM 29.7803 -95.7544 343° North 148 170 3,600 629 Climbing Houston Center
Fri 07:50:20 PM 29.8189 -95.7672 344° North 146 168 4,200 581 Climbing Houston Center
Fri 07:51:22 PM 29.8567 -95.7803 343° North 142 163 4,800 581 Climbing Houston Center
Fri 07:52:24 PM 29.8958 -95.7925 345° North 145 167 5,400 532 Climbing Houston Center
Fri 07:53:26 PM 29.9333 -95.8061 343° North 142 163 5,900 532 Climbing Houston Center
Fri 07:54:28 PM 29.9792 -95.8206 345° North 141 162 6,500 528 Climbing Houston Center
Fri 07:55:31 PM 30.0172 -95.8350 342° North 144 166 7,000 435 Climbing Houston Center
Fri 07:56:32 PM 30.0561 -95.8478 344° North 144 166 7,400 439 Climbing Houston Center
Fri 07:57:34 PM 30.0928 -95.8628 341° North 142 163 7,900 484 Climbing Houston Center
Fri 07:58:36 PM 30.1300 -95.8753 344° North 140 161 8,400 244 Climbing Houston Center
Fri 07:59:37 PM 30.1694 -95.8903 342° North 149 171 8,400  Level Houston Center
Fri 08:00:39 PM 30.2228 -95.9086 343° North 163 188 8,400  Level Houston Center
Fri 08:01:41 PM 30.2658 -95.9247 342° North 163 188 8,400  Level Houston Center
Fri 08:02:43 PM 30.3097 -95.9386 345° North 163 188 8,400 48 Level Houston Center
Fri 08:03:45 PM 30.3517 -95.9539 343° North 158 182 8,500  Climbing Houston Center
Fri 08:04:46 PM 30.3956 -95.9700 342° North 164 189 8,400 -49 Descending Houston Center
Fri 08:05:48 PM 30.4375 -95.9839 344° North 158 182 8,400  Level Houston Center
Fri 08:06:50 PM 30.4814 -95.9992 343° North 164 189 8,400  Level Houston Center
Fri 08:07:52 PM 30.5333 -96.0178 343° North 162 186 8,400  Level Houston Center
Fri 08:08:54 PM 30.5767 -96.0319 344° North 162 186 8,400  Level Houston Center
Fri 08:09:55 PM 30.6208 -96.0467 344° North 164 189 8,400  Level Houston Center
Fri 08:10:57 PM 30.6661 -96.0631 343° North 165 190 8,400  Level Houston Center
Fri 08:11:59 PM 30.7108 -96.0789 343° North 166 191 8,400 48 Level Houston Center
Fri 08:13:01 PM 30.7556 -96.0936 344° North 167 192 8,500  Climbing Houston Center
Fri 08:14:02 PM 30.7994 -96.1094 343° North 165 190 8,400 -49 Descending Houston Center
Fri 08:15:04 PM 30.8431 -96.1236 344° North 162 186 8,400  Level Houston Center
Fri 08:16:06 PM 30.8850 -96.1411 340° North 160 184 8,400  Level Houston Center
Fri 08:17:08 PM 30.9361 -96.1575 345° North 160 184 8,400  Level Houston Center
Fri 08:18:09 PM 30.9775 -96.1725 343° North 156 180 8,400  Level Houston Center
Fri 08:19:11 PM 31.0194 -96.1875 343° North 156 180 8,400 -145 Level Houston Center
Fri 08:20:13 PM 31.0619 -96.2044 341° North 161 185 8,100 -458 Descending Houston Center
Fri 08:21:09 PM 31.1069 -96.2206 343° North 178 205 7,500 -585 Descending Houston Center
Fri 08:22:16 PM 31.1603 -96.2383 344° North 182 209 6,900 -465 Descending Houston Center
Fri 08:23:18 PM 31.2086 -96.2569 342° North 182 209 6,500 -195 Descending Houston Center
Fri 08:24:19 PM 31.2550 -96.2725 344° North 175 201 6,500  Level Houston Center
Fri 08:25:21 PM 31.2989 -96.2881 343° North 166 191 6,500  Level Houston Center
Fri 08:26:23 PM 31.3517 -96.3061 344° North 167 192 6,500  Level Houston Center
Fri 08:27:24 PM 31.3958 -96.3219 343° North 165 190 6,500  Level Houston Center
Fri 08:28:26 PM 31.4400 -96.3383 342° North 165 190 6,500  Level Houston Center
Fri 08:29:28 PM 31.4850 -96.3547 343° North 165 190 6,500  Level Houston Center
Fri 08:30:29 PM 31.5275 -96.3719 341° North 163 188 6,500  Level Houston Center
Fri 08:31:31 PM 31.5714 -96.3878 343° North 162 186 6,500 -48 Level Houston Center
Fri 08:32:33 PM 31.6158 -96.4036 343° North 165 190 6,400 -48 Descending Houston Center
Fri 08:33:35 PM 31.6594 -96.4200 342° North 163 188 6,400 49 Level Houston Center
Fri 08:34:36 PM 31.7042 -96.4353 344° North 165 190 6,500 49 Climbing Houston Center
Fri 08:35:38 PM 31.7567 -96.4525 344° North 166 191 6,500  Level Houston Center

Login

Don't have an account? Register now (free) for customized features, flight alerts, and more!